Time;durP1;ratioP1;P1;durP2;ratioP2;P2;SDS_P1;SDS_P2;PMS_P1;PMS_P2;Temp;Humidity;BMP_temperature;BMP_pressure;BME280_temperature;BME280_humidity;BME280_pressure;Samples;Min_cycle;Max_cycle;Signal;HPM_P1;HPM_P2
2021/06/13 00:02:14;;;;;;;10.43;4.55;;;;;;;20.23;64.92;100046.17;1852464;77;22617;-73
2021/06/13 00:04:47;;;;;;;5.05;4.47;;;;;;;20.20;64.92;100052.08;1821872;77;22197;-64
2021/06/13 00:07:20;;;;;;;8.58;4.90;;;;;;;20.20;65.02;100041.39;1834488;77;22611;-74
2021/06/13 00:09:53;;;;;;;4.90;4.40;;;;;;;20.21;64.95;100039.10;1813005;77;22662;-64
2021/06/13 00:12:27;;;;;;;7.15;4.60;;;;;;;20.20;65.02;100030.70;1834502;77;22595;-70
2021/06/13 00:15:00;;;;;;;7.12;4.83;;;;;;;20.21;65.03;100036.92;1817485;77;22203;-64
2021/06/13 00:17:34;;;;;;;5.58;4.03;;;;;;;20.19;65.06;100030.80;1851320;77;22174;-65
2021/06/13 00:20:13;;;;;;;6.12;4.10;;;;;;;20.16;65.04;100026.97;1819710;77;22548;-70
2021/06/13 00:22:47;;;;;;;5.87;4.08;;;;;;;20.14;64.98;100027.05;1831855;77;22120;-65
2021/06/13 00:25:20;;;;;;;6.97;4.75;;;;;;;20.11;64.98;100030.38;1809643;77;22218;-69
2021/06/13 00:27:53;;;;;;;8.63;4.95;;;;;;;20.05;65.00;100021.77;1822218;77;22603;-64
2021/06/13 00:30:26;;;;;;;7.50;4.75;;;;;;;20.01;65.05;100023.38;1815515;77;22206;-69
2021/06/13 00:33:00;;;;;;;5.10;4.20;;;;;;;19.97;65.01;100020.01;1822081;77;23182;-68
2021/06/13 00:35:33;;;;;;;7.33;4.85;;;;;;;19.94;65.02;100017.52;1814047;77;22230;-69
2021/06/13 00:38:06;;;;;;;5.90;4.47;;;;;;;19.91;65.02;100023.02;1793237;77;22212;-64
2021/06/13 00:40:53;;;;;;;6.42;4.05;;;;;;;19.87;64.87;100024.14;1697728;83;21205;-70
2021/06/13 00:43:26;;;;;;;6.75;4.37;;;;;;;19.87;64.84;100021.48;1827482;77;22159;-68
2021/06/13 00:45:59;;;;;;;9.23;4.65;;;;;;;19.83;64.92;100018.59;1812085;77;22232;-64
2021/06/13 00:48:46;;;;;;;5.80;4.65;;;;;;;19.78;64.87;100020.66;1753578;82;21204;-65
2021/06/13 00:51:19;;;;;;;5.83;4.67;;;;;;;19.77;64.98;100022.45;1829803;77;22472;-64
2021/06/13 00:53:52;;;;;;;7.22;4.87;;;;;;;19.74;65.00;100025.29;1834417;77;22200;-65
2021/06/13 00:56:25;;;;;;;7.20;4.55;;;;;;;19.76;64.94;100022.94;1816984;77;23308;-68
2021/06/13 00:59:11;;;;;;;6.40;4.45;;;;;;;19.69;64.90;100021.55;1763868;80;21170;-65
2021/06/13 01:01:44;;;;;;;8.38;5.45;;;;;;;19.67;64.96;100010.10;1827387;77;22609;-64
2021/06/13 01:04:17;;;;;;;6.00;4.50;;;;;;;19.64;65.03;100005.42;1826628;77;22147;-63
2021/06/13 01:07:12;;;;;;;6.00;4.90;;;;;;;19.61;65.01;100007.77;1759764;81;21257;-64
2021/06/13 01:09:53;;;;;;;9.58;5.12;;;;;;;19.60;65.01;100001.59;1830232;77;22629;-63
2021/06/13 01:12:36;;;;;;;7.25;5.15;;;;;;;19.59;64.95;100002.53;1833813;77;22164;-67
2021/06/13 01:15:25;;;;;;;7.20;5.35;;;;;;;19.54;64.96;100007.27;1775361;80;21322;-67
2021/06/13 01:18:09;;;;;;;7.20;4.97;;;;;;;19.57;65.13;99996.42;1829596;77;22147;-66
2021/06/13 01:20:50;;;;;;;7.55;5.62;;;;;;;19.54;65.33;99993.04;1811848;77;22768;-64
2021/06/13 01:23:48;;;;;;;10.38;5.70;;;;;;;19.51;65.44;99995.88;1851867;77;22583;-66
2021/06/13 01:27:04;;;;;;;7.50;5.28;;;;;;;19.44;65.77;99994.03;1817965;77;22193;-65
2021/06/13 01:29:48;;;;;;;8.65;6.12;;;;;;;19.40;66.02;99993.36;1826555;77;22226;-66
2021/06/13 01:32:37;;;;;;;11.68;6.00;;;;;;;19.35;66.12;99987.41;1760757;81;21641;-64
2021/06/13 01:35:15;;;;;;;6.45;5.42;;;;;;;19.39;66.17;99994.30;1818625;77;22202;-63
2021/06/13 01:37:52;;;;;;;7.60;5.80;;;;;;;19.41;66.25;99990.20;1819762;77;22159;-63
2021/06/13 01:40:29;;;;;;;9.35;5.95;;;;;;;19.44;66.15;99988.21;1815107;77;22182;-67
2021/06/13 01:43:16;;;;;;;9.08;6.03;;;;;;;19.45;65.95;99997.09;1761880;81;21578;-65
2021/06/13 01:45:49;;;;;;;8.25;5.62;;;;;;;19.45;65.95;99986.42;1805797;77;22228;-66
2021/06/13 01:48:22;;;;;;;7.58;5.92;;;;;;;19.43;65.91;99983.82;1827541;77;22159;-67
2021/06/13 01:51:09;;;;;;;9.10;5.62;;;;;;;19.39;65.82;99980.96;1736089;80;21292;-66
2021/06/13 01:53:42;;;;;;;9.80;6.42;;;;;;;19.40;65.88;99977.34;1833986;77;23323;-63
2021/06/13 01:56:16;;;;;;;9.73;6.00;;;;;;;19.40;65.81;99975.14;1792166;77;22198;-67
2021/06/13 01:58:50;;;;;;;8.18;5.95;;;;;;;19.36;65.71;99971.79;1840877;77;22175;-67
2021/06/13 02:01:25;;;;;;;9.05;6.17;;;;;;;19.32;65.76;99971.08;1820398;77;22581;-63
2021/06/13 02:03:59;;;;;;;15.98;8.33;;;;;;;19.32;65.68;99966.23;1827248;77;28033;-62
2021/06/13 02:06:51;;;;;;;7.25;5.92;;;;;;;19.31;65.63;99966.69;1761874;80;21115;-70
2021/06/13 02:09:25;;;;;;;7.90;6.12;;;;;;;19.37;65.59;99961.50;1815625;77;22602;-68
2021/06/13 02:12:01;;;;;;;8.08;5.67;;;;;;;19.40;65.59;99962.67;1851443;77;22170;-68
2021/06/13 02:14:35;;;;;;;8.10;6.28;;;;;;;19.37;65.65;99966.84;1833669;77;22238;-69
2021/06/13 02:17:08;;;;;;;8.38;5.80;;;;;;;19.38;65.60;99968.56;1839725;77;22160;-63
2021/06/13 02:19:42;;;;;;;12.88;6.10;;;;;;;19.40;65.49;99966.67;1825408;77;22609;-69
2021/06/13 02:22:18;;;;;;;9.73;6.53;;;;;;;19.39;65.52;99963.62;1822395;77;22159;-69
2021/06/13 02:25:06;;;;;;;7.17;6.03;;;;;;;19.37;65.60;99965.97;1766285;80;21652;-64
2021/06/13 02:27:40;;;;;;;8.83;6.55;;;;;;;19.39;65.69;99960.95;1821337;77;22130;-69
2021/06/13 02:30:15;;;;;;;8.48;5.80;;;;;;;19.40;65.71;99963.13;1817715;77;22206;-63
2021/06/13 02:33:02;;;;;;;7.53;6.12;;;;;;;19.34;65.77;99963.01;1745088;81;21148;-64
2021/06/13 02:35:37;;;;;;;9.05;6.12;;;;;;;19.37;65.84;99961.96;1812841;77;22183;-69
2021/06/13 02:38:10;;;;;;;9.68;7.75;;;;;;;19.40;65.86;99958.67;1818877;77;27965;-69
2021/06/13 02:40:58;;;;;;;8.23;6.37;;;;;;;19.42;65.80;99958.11;1752612;80;21327;-70
2021/06/13 02:43:31;;;;;;;8.25;6.58;;;;;;;19.45;65.84;99957.91;1833160;77;22524;-69
2021/06/13 02:46:04;;;;;;;6.87;6.12;;;;;;;19.48;65.85;99951.55;1792364;77;22246;-64
2021/06/13 02:48:38;;;;;;;10.38;6.42;;;;;;;19.43;66.02;99949.62;1831796;77;22180;-64
2021/06/13 02:51:12;;;;;;;8.73;5.95;;;;;;;19.44;66.10;99948.67;1798513;77;22233;-69
2021/06/13 02:53:58;;;;;;;9.70;6.80;;;;;;;19.44;66.23;99950.00;1747079;81;22115;-69
2021/06/13 02:56:38;;;;;;;9.10;7.08;;;;;;;19.45;66.33;99941.89;1852824;77;22203;-64
2021/06/13 02:59:43;;;;;;;9.63;6.12;;;;;;;19.48;66.37;99942.22;1811089;77;22163;-64
2021/06/13 03:02:25;;;;;;;8.83;6.62;;;;;;;19.51;66.49;99943.84;1846870;77;22195;-69
2021/06/13 03:04:59;;;;;;;7.30;6.22;;;;;;;19.52;66.60;99939.77;1839951;77;22185;-68
2021/06/13 03:07:45;;;;;;;9.95;6.85;;;;;;;19.52;66.77;99946.44;1793813;79;21142;-70
2021/06/13 03:10:18;;;;;;;8.48;7.22;;;;;;;19.57;66.82;99934.15;1817252;77;22170;-64
2021/06/13 03:12:54;;;;;;;8.53;6.67;;;;;;;19.61;66.84;99939.70;1822081;77;22170;-67
2021/06/13 03:15:41;;;;;;;8.23;6.55;;;;;;;19.63;66.88;99944.48;1732775;81;21154;-65
2021/06/13 03:18:14;;;;;;;7.20;6.30;;;;;;;19.71;66.88;99936.90;1821020;77;22169;-64
2021/06/13 03:20:47;;;;;;;10.23;6.75;;;;;;;19.74;66.98;99940.73;1825995;77;22159;-67
2021/06/13 03:23:20;;;;;;;8.23;7.17;;;;;;;19.79;67.06;99939.61;1790516;77;22193;-66
2021/06/13 03:25:53;;;;;;;8.08;6.75;;;;;;;19.89;67.02;99940.34;1822660;77;22176;-68
2021/06/13 03:28:27;;;;;;;8.38;6.72;;;;;;;20.12;66.60;99934.10;1834478;77;22179;-69
2021/06/13 03:31:01;;;;;;;8.93;6.58;;;;;;;20.21;66.52;99930.89;1807046;77;22167;-68
2021/06/13 03:33:48;;;;;;;7.70;6.83;;;;;;;20.23;66.56;99936.62;1761428;81;21194;-70
2021/06/13 03:36:21;;;;;;;9.43;6.65;;;;;;;20.33;66.51;99924.44;1818626;77;22217;-69
2021/06/13 03:38:54;;;;;;;8.35;6.75;;;;;;;20.41;66.56;99927.50;1832185;77;22123;-65
2021/06/13 03:41:40;;;;;;;7.30;6.45;;;;;;;20.45;66.40;99919.69;1741739;81;21266;-66
2021/06/13 03:44:13;;;;;;;8.95;7.67;;;;;;;20.55;66.31;99911.95;1824513;77;22160;-65
2021/06/13 03:46:47;;;;;;;10.93;7.12;;;;;;;20.61;66.28;99908.03;1852799;77;22132;-70
2021/06/13 03:49:34;;;;;;;9.75;7.33;;;;;;;20.64;66.29;99906.51;1787046;79;21342;-71
2021/06/13 03:52:07;;;;;;;8.13;6.45;;;;;;;20.76;66.28;99905.75;1834442;77;22587;-66
2021/06/13 03:54:41;;;;;;;7.80;6.65;;;;;;;20.86;66.22;99900.70;1821442;77;22205;-66
2021/06/13 03:57:14;;;;;;;7.60;6.87;;;;;;;20.90;66.21;99899.56;1844801;77;22521;-64
2021/06/13 03:59:48;;;;;;;9.15;7.33;;;;;;;20.98;66.00;99896.39;1814500;77;22177;-65
2021/06/13 04:02:45;;;;;;;7.37;6.62;;;;;;;21.04;66.08;99905.86;1746723;81;21110;-68
2021/06/13 04:05:19;;;;;;;9.80;6.75;;;;;;;21.18;66.14;99908.52;1817214;77;22202;-65
2021/06/13 04:07:52;;;;;;;8.30;7.15;;;;;;;21.25;66.02;99900.45;1833385;77;22175;-67
2021/06/13 04:10:39;;;;;;;7.42;6.47;;;;;;;21.32;66.21;99905.41;1772061;79;21207;-68
2021/06/13 04:13:12;;;;;;;10.13;6.70;;;;;;;21.44;66.20;99895.25;1827600;77;22183;-65
2021/06/13 04:15:45;;;;;;;7.85;6.90;;;;;;;21.53;66.05;99902.68;1811274;77;22202;-64
2021/06/13 04:18:33;;;;;;;8.63;6.80;;;;;;;21.57;65.64;99906.00;1741997;80;21134;-65
2021/06/13 04:21:06;;;;;;;11.60;7.20;;;;;;;21.71;65.60;99897.08;1804932;77;22198;-68
2021/06/13 04:23:42;;;;;;;9.28;7.05;;;;;;;21.80;65.28;99896.97;1834447;77;22140;-65
2021/06/13 04:26:17;;;;;;;10.23;8.20;;;;;;;21.92;64.92;99901.97;1784236;77;28131;-69
2021/06/13 04:28:51;;;;;;;9.38;7.60;;;;;;;22.03;64.76;99894.53;1811767;77;27964;-68
2021/06/13 04:31:37;;;;;;;7.50;6.70;;;;;;;22.12;64.42;99895.25;1761440;80;21186;-70
2021/06/13 04:34:10;;;;;;;6.87;6.12;;;;;;;22.30;64.25;99894.96;1850899;77;22174;-69
2021/06/13 04:36:43;;;;;;;7.12;6.42;;;;;;;22.42;64.05;99896.77;1828359;77;22596;-65
2021/06/13 04:39:16;;;;;;;6.90;6.22;;;;;;;22.30;64.48;99893.13;1820213;77;22195;-69
2021/06/13 04:41:50;;;;;;;10.10;6.70;;;;;;;22.38;64.14;99892.11;1817863;77;22210;-68
2021/06/13 04:44:23;;;;;;;8.18;5.78;;;;;;;22.52;64.14;99892.52;1814530;77;22270;-65
2021/06/13 04:46:56;;;;;;;6.72;6.00;;;;;;;22.64;63.83;99894.80;1829787;77;22116;-69
2021/06/13 04:49:29;;;;;;;9.45;6.72;;;;;;;22.76;63.41;99898.44;1823662;77;22226;-70
2021/06/13 04:52:05;;;;;;;6.85;6.00;;;;;;;22.85;62.86;99890.23;1816678;77;22131;-65
2021/06/13 04:54:56;;;;;;;6.65;5.92;;;;;;;22.95;63.10;99887.27;1811608;77;20230;-64
2021/06/13 04:58:02;;;;;;;8.00;6.40;;;;;;;23.00;62.84;99887.77;1757240;81;21196;-70
2021/06/13 05:00:35;;;;;;;7.65;5.65;;;;;;;23.21;62.30;99880.94;1808361;77;22209;-68
2021/06/13 05:03:08;;;;;;;9.63;5.95;;;;;;;23.37;62.15;99885.59;1827814;77;22206;-69
2021/06/13 05:05:54;;;;;;;7.15;5.60;;;;;;;23.44;61.85;99890.89;1785286;78;21266;-69
2021/06/13 05:08:28;;;;;;;8.20;5.35;;;;;;;23.64;60.57;99876.44;1818194;77;22194;-65
2021/06/13 05:11:01;;;;;;;6.97;4.87;;;;;;;23.75;60.82;99884.55;1789087;77;22207;-68
2021/06/13 05:13:47;;;;;;;5.90;4.47;;;;;;;23.83;58.76;99886.67;1683935;84;21149;-69
2021/06/13 05:16:20;;;;;;;8.28;4.58;;;;;;;23.96;57.92;99879.00;1804108;77;22225;-66
2021/06/13 05:18:53;;;;;;;5.05;4.30;;;;;;;24.12;57.96;99881.39;1810797;77;22202;-69
2021/06/13 05:21:26;;;;;;;11.57;4.58;;;;;;;24.21;56.88;99880.69;1798044;77;22176;-69
2021/06/13 05:24:12;;;;;;;5.78;4.30;;;;;;;24.27;56.22;99882.06;1774726;79;21534;-66
2021/06/13 05:26:45;;;;;;;5.65;4.25;;;;;;;24.44;55.57;99880.23;1852795;77;22179;-66
2021/06/13 05:29:18;;;;;;;4.90;4.15;;;;;;;24.45;55.61;99881.94;1830320;77;22616;-69
2021/06/13 05:31:51;;;;;;;5.42;4.15;;;;;;;24.56;55.26;99874.36;1824425;77;22135;-67
2021/06/13 05:34:37;;;;;;;5.47;3.83;;;;;;;24.64;54.92;99881.34;1768947;80;21143;-68
2021/06/13 05:37:10;;;;;;;3.83;3.40;;;;;;;24.92;53.67;99877.83;1848246;77;22201;-66
2021/06/13 05:39:43;;;;;;;17.75;5.22;;;;;;;25.23;53.62;99871.75;1807308;77;22202;-70
2021/06/13 05:42:29;;;;;;;4.75;3.75;;;;;;;25.37;52.74;99870.64;1751511;81;21162;-66
2021/06/13 05:45:04;;;;;;;7.45;3.60;;;;;;;25.39;50.74;99864.61;1821145;77;22210;-66
2021/06/13 05:47:38;;;;;;;11.22;4.80;;;;;;;25.51;50.86;99866.83;1822992;77;27973;-66
2021/06/13 05:50:23;;;;;;;12.05;5.00;;;;;;;25.48;51.17;99869.78;1784364;78;21304;-72
2021/06/13 05:52:57;;;;;;;6.67;3.87;;;;;;;25.75;50.28;99865.73;1815853;77;22573;-68
2021/06/13 05:55:30;;;;;;;6.50;3.50;;;;;;;25.95;50.21;99859.99;1808284;77;22205;-67
2021/06/13 05:58:03;;;;;;;9.20;4.33;;;;;;;26.10;49.22;99856.47;1830376;77;22534;-67
2021/06/13 06:00:49;;;;;;;9.83;3.60;;;;;;;26.13;48.00;99865.67;1777071;80;21126;-69
2021/06/13 06:03:22;;;;;;;12.25;4.25;;;;;;;26.21;48.49;99860.48;1852796;77;22148;-67
2021/06/13 06:05:56;;;;;;;4.65;3.15;;;;;;;26.22;47.56;99862.70;1780018;77;22241;-69
2021/06/13 06:08:29;;;;;;;4.65;3.12;;;;;;;26.36;47.02;99860.98;1808932;77;22210;-68
2021/06/13 06:11:02;;;;;;;4.45;3.25;;;;;;;26.47;46.99;99847.92;1804266;77;22226;-67
2021/06/13 06:13:35;;;;;;;4.92;3.10;;;;;;;26.60;47.56;99851.73;1834443;77;22156;-68
2021/06/13 06:16:21;;;;;;;4.78;2.83;;;;;;;26.71;47.03;99847.56;1762082;80;21147;-68
2021/06/13 06:18:54;;;;;;;4.08;2.70;;;;;;;26.89;46.07;99842.91;1822840;77;22186;-69
2021/06/13 06:21:27;;;;;;;7.55;2.90;;;;;;;26.95;44.37;99845.06;1897381;74;22148;-68
2021/06/13 06:24:00;;;;;;;5.28;2.80;;;;;;;27.09;45.13;99839.75;1829062;77;22203;-68
2021/06/13 06:26:47;;;;;;;3.72;2.80;;;;;;;27.28;45.80;99838.09;1699311;84;21170;-69
2021/06/13 06:29:20;;;;;;;6.62;3.27;;;;;;;27.49;43.32;99835.77;1821605;77;22191;-68
2021/06/13 06:31:54;;;;;;;6.58;3.45;;;;;;;27.63;43.30;99828.59;1834462;77;22606;-67
2021/06/13 06:34:27;;;;;;;4.22;2.80;;;;;;;27.70;44.00;99818.05;1822369;77;22205;-65
2021/06/13 06:37:00;;;;;;;5.55;2.90;;;;;;;27.72;42.80;99816.92;1829134;77;22182;-66
2021/06/13 06:39:33;;;;;;;4.17;2.58;;;;;;;27.79;43.56;99813.65;1814212;77;22609;-68
2021/06/13 06:42:07;;;;;;;5.20;2.37;;;;;;;27.86;43.04;99816.10;1846931;77;22174;-70
2021/06/13 06:44:40;;;;;;;2.80;2.45;;;;;;;27.80;42.66;99814.84;1825942;77;23200;-69
2021/06/13 06:47:26;;;;;;;2.80;2.22;;;;;;;27.84;42.80;99811.34;1759164;81;21146;-70
2021/06/13 06:49:59;;;;;;;2.85;2.33;;;;;;;27.93;42.27;99809.12;1829187;77;22183;-69
2021/06/13 06:52:34;;;;;;;3.12;2.12;;;;;;;27.99;41.95;99808.54;1826878;77;22686;-69
2021/06/13 06:55:08;;;;;;;4.08;2.08;;;;;;;28.07;42.31;99807.80;1817489;77;22673;-68
2021/06/13 06:57:55;;;;;;;2.52;2.08;;;;;;;28.08;41.84;99812.73;1761373;81;21150;-71
2021/06/13 07:00:29;;;;;;;2.47;1.60;;;;;;;28.23;41.30;99798.25;1829989;77;22223;-71
2021/06/13 07:03:02;;;;;;;5.17;2.10;;;;;;;28.22;40.48;99806.89;1820747;77;22604;-70
2021/06/13 07:05:47;;;;;;;3.20;1.60;;;;;;;28.27;39.68;99803.72;1794580;80;21706;-71
2021/06/13 07:08:20;;;;;;;4.15;1.87;;;;;;;28.25;40.60;99798.96;1822125;77;22167;-69
2021/06/13 07:10:55;;;;;;;3.30;1.60;;;;;;;28.37;41.00;99803.68;1807356;77;22725;-69
2021/06/13 07:13:28;;;;;;;3.92;1.90;;;;;;;28.38;39.78;99803.55;1852682;77;22178;-69
2021/06/13 07:16:01;;;;;;;2.65;1.80;;;;;;;28.38;40.23;99806.73;1811323;77;22175;-67
2021/06/13 07:18:48;;;;;;;2.17;1.80;;;;;;;28.37;40.40;99809.96;1772702;80;21301;-68
2021/06/13 07:21:21;;;;;;;2.10;1.90;;;;;;;28.40;39.33;99808.80;1820653;77;22594;-69
2021/06/13 07:23:55;;;;;;;3.00;1.92;;;;;;;28.57;40.84;99809.86;1834394;77;22626;-69
2021/06/13 07:26:28;;;;;;;5.75;2.12;;;;;;;28.67;40.25;99805.25;1883634;74;22139;-70
2021/06/13 07:29:02;;;;;;;15.58;3.40;;;;;;;28.76;39.18;99798.97;1833676;77;22192;-71
2021/06/13 07:31:35;;;;;;;3.30;2.30;;;;;;;28.83;39.38;99804.63;1834317;77;22179;-67
2021/06/13 07:34:08;;;;;;;4.62;2.22;;;;;;;28.85;39.66;99808.55;1839749;77;22574;-69
2021/06/13 07:36:41;;;;;;;4.37;2.17;;;;;;;28.94;38.71;99808.48;1831662;77;22163;-69
2021/06/13 07:39:27;;;;;;;3.40;2.00;;;;;;;28.89;37.86;99815.37;1790723;80;21134;-68
2021/06/13 07:42:01;;;;;;;3.47;1.95;;;;;;;28.90;37.73;99800.83;1834274;77;22580;-68
2021/06/13 07:44:35;;;;;;;3.10;1.92;;;;;;;28.84;37.39;99800.08;1830747;77;22229;-68
2021/06/13 07:47:21;;;;;;;3.47;2.00;;;;;;;28.80;37.27;99807.62;1759766;80;21127;-69
2021/06/13 07:49:54;;;;;;;4.95;1.80;;;;;;;28.91;38.39;99797.95;1794845;77;22265;-66
2021/06/13 07:52:27;;;;;;;1.92;1.50;;;;;;;29.04;37.62;99798.09;1851724;77;22127;-67
2021/06/13 07:55:15;;;;;;;2.65;1.77;;;;;;;29.19;37.71;99797.05;1743992;81;21701;-68
2021/06/13 07:57:49;;;;;;;2.67;2.00;;;;;;;29.45;38.22;99794.93;1852724;77;22210;-68
2021/06/13 08:00:23;;;;;;;2.10;1.67;;;;;;;29.55;37.54;99786.73;1816121;77;22653;-69
2021/06/13 08:02:57;;;;;;;3.35;1.80;;;;;;;29.65;37.85;99788.83;1841278;77;22175;-68
2021/06/13 08:05:43;;;;;;;3.62;1.85;;;;;;;29.75;36.68;99786.88;1778351;80;21240;-70
2021/06/13 08:08:16;;;;;;;3.50;1.90;;;;;;;29.89;36.49;99791.39;1821046;77;22712;-69
2021/06/13 08:10:49;;;;;;;3.70;1.72;;;;;;;29.86;36.95;99783.56;1817351;77;22676;-68
2021/06/13 08:13:23;;;;;;;1.50;1.40;;;;;;;29.91;37.35;99786.13;1810317;77;22583;-67
2021/06/13 08:15:56;;;;;;;3.02;1.55;;;;;;;29.98;37.00;99783.69;1792332;77;22626;-69
2021/06/13 08:18:42;;;;;;;2.60;1.42;;;;;;;30.03;37.63;99794.05;1761418;81;21315;-69
2021/06/13 08:21:15;;;;;;;5.08;1.77;;;;;;;30.14;37.35;99789.71;1782239;77;22197;-67
2021/06/13 08:23:48;;;;;;;3.92;1.60;;;;;;;30.01;37.31;99777.08;1825850;77;22633;-69
2021/06/13 08:26:35;;;;;;;2.33;1.87;;;;;;;29.94;36.36;99784.98;1760877;80;21170;-70
2021/06/13 08:29:08;;;;;;;2.47;1.62;;;;;;;30.17;37.11;99780.38;1825966;77;22187;-70
2021/06/13 08:31:42;;;;;;;1.60;1.12;;;;;;;30.32;36.72;99786.05;1820961;77;22160;-67
2021/06/13 08:34:15;;;;;;;2.00;1.30;;;;;;;30.40;36.18;99782.89;1817807;77;22159;-69
2021/06/13 08:36:48;;;;;;;3.47;1.57;;;;;;;30.36;36.22;99781.52;1852753;77;22655;-70
2021/06/13 08:39:35;;;;;;;3.90;1.40;;;;;;;30.26;35.25;99785.69;1758172;81;21632;-70
2021/06/13 08:42:08;;;;;;;5.45;1.30;;;;;;;30.33;36.04;99781.84;1822514;77;22190;-69
2021/06/13 08:44:42;;;;;;;3.12;1.30;;;;;;;30.40;35.18;99771.17;1818220;77;22249;-69
2021/06/13 08:47:28;;;;;;;2.80;1.70;;;;;;;30.41;35.74;99778.30;1764761;81;21177;-70
2021/06/13 08:50:01;;;;;;;4.53;1.70;;;;;;;30.63;36.07;99774.17;1821015;77;22227;-66
2021/06/13 08:52:34;;;;;;;2.85;1.20;;;;;;;30.73;35.12;99774.55;1820657;77;22169;-70
2021/06/13 08:55:22;;;;;;;1.85;1.20;;;;;;;30.74;35.30;99769.45;1794275;80;21185;-68
2021/06/13 08:57:55;;;;;;;3.00;1.22;;;;;;;30.59;35.06;99763.82;1834411;77;22176;-69
2021/06/13 09:00:31;;;;;;;6.12;1.20;;;;;;;30.73;36.04;99761.80;1808769;77;22224;-69
2021/06/13 09:03:07;;;;;;;3.10;1.37;;;;;;;30.81;35.08;99762.36;1836973;77;27959;-66
2021/06/13 09:05:53;;;;;;;82.75;33.45;;;;;;;30.74;35.82;99764.03;1800606;78;21174;-70
2021/06/13 09:08:38;;;;;;;32.23;10.80;;;;;;;30.78;34.78;99757.25;1849494;77;22175;-71
2021/06/13 09:11:31;;;;;;;13.55;4.35;;;;;;;30.92;34.21;99747.08;1791210;77;22239;-69
2021/06/13 09:14:14;;;;;;;120.30;47.70;;;;;;;30.80;34.81;99750.63;1833992;77;22128;-68
2021/06/13 09:17:11;;;;;;;7.50;3.35;;;;;;;30.75;35.08;99748.08;1754984;80;21131;-70
2021/06/13 09:23:13;;;;;;;2.52;1.12;;;;;;;30.83;35.52;99741.31;1834406;77;22172;-70
2021/06/13 09:26:01;;;;;;;2.83;1.40;;;;;;;31.03;35.59;99723.32;1808391;77;22205;-69
2021/06/13 09:28:40;;;;;;;3.72;1.22;;;;;;;31.06;35.64;99718.42;1833571;77;22171;-67
2021/06/13 09:31:29;;;;;;;2.52;1.00;;;;;;;31.23;33.35;99726.09;1804730;77;22716;-68
2021/06/13 09:34:05;;;;;;;2.02;1.42;;;;;;;31.26;34.55;99717.61;1834347;77;22164;-67
2021/06/13 09:36:51;;;;;;;3.12;1.30;;;;;;;31.26;33.56;99718.97;1761449;81;21312;-70
2021/06/13 09:39:25;;;;;;;1.50;1.05;;;;;;;31.31;33.88;99715.72;1823316;77;22671;-70
2021/06/13 09:42:09;;;;;;;3.90;1.60;;;;;;;31.26;33.08;99715.38;1811511;77;27958;-69
2021/06/13 09:45:01;;;;;;;2.42;1.15;;;;;;;31.18;33.27;99724.39;1781497;80;21174;-69
2021/06/13 09:47:34;;;;;;;4.55;1.47;;;;;;;31.37;33.75;99707.38;1837109;77;22112;-70
2021/06/13 09:50:07;;;;;;;2.47;1.42;;;;;;;31.34;33.15;99705.04;1814641;77;22229;-68
2021/06/13 09:52:53;;;;;;;2.92;1.75;;;;;;;31.37;33.82;99700.09;1766569;81;21186;-69
2021/06/13 09:55:26;;;;;;;3.75;1.35;;;;;;;31.59;35.02;99697.67;1812967;77;22162;-67
2021/06/13 09:58:06;;;;;;;1.72;1.30;;;;;;;31.87;34.23;99694.59;1836240;77;22599;-69
2021/06/13 10:00:39;;;;;;;3.30;1.40;;;;;;;31.92;33.88;99692.70;1812630;77;22175;-69
2021/06/13 10:03:26;;;;;;;4.10;1.35;;;;;;;31.96;33.30;99692.19;1756776;81;21115;-70
2021/06/13 10:05:59;;;;;;;1.85;1.27;;;;;;;31.88;32.08;99681.33;1815735;77;22191;-69
2021/06/13 10:08:33;;;;;;;7.33;1.80;;;;;;;31.83;33.30;99691.36;1822621;77;22183;-70
2021/06/13 10:11:06;;;;;;;4.67;1.72;;;;;;;31.78;32.61;99688.83;1806514;77;22637;-71
2021/06/13 10:13:52;;;;;;;2.47;1.50;;;;;;;31.79;33.27;99684.59;1812452;77;22167;-68
2021/06/13 10:16:33;;;;;;;3.35;1.50;;;;;;;31.83;33.51;99679.11;1822261;77;22143;-71
2021/06/13 10:19:14;;;;;;;4.37;1.80;;;;;;;31.86;34.17;99672.49;1830901;77;22174;-71
2021/06/13 10:22:03;;;;;;;4.53;1.70;;;;;;;32.06;33.62;99675.64;1774058;80;21276;-71
2021/06/13 10:24:38;;;;;;;6.53;2.77;;;;;;;31.93;32.82;99668.55;1831311;77;22205;-69
2021/06/13 10:27:14;;;;;;;17.67;5.83;;;;;;;32.00;32.46;99665.46;1852663;77;22255;-74
2021/06/13 10:29:50;;;;;;;22.50;10.80;;;;;;;32.02;32.76;99671.58;1823835;77;22230;-70
2021/06/13 10:32:35;;;;;;;140.10;38.67;;;;;;;32.05;33.19;99654.90;1761331;80;21317;-70
2021/06/13 10:35:11;;;;;;;5.12;1.95;;;;;;;32.15;33.06;99654.67;1836317;77;22187;-70
2021/06/13 10:37:45;;;;;;;2.83;1.47;;;;;;;32.10;33.14;99657.94;1794241;77;28499;-70
2021/06/13 10:40:18;;;;;;;5.87;1.50;;;;;;;32.19;32.42;99647.36;1835225;77;22205;-71
2021/06/13 10:42:51;;;;;;;31.50;5.78;;;;;;;32.38;32.81;99652.56;1834357;77;22208;-70
2021/06/13 10:45:31;;;;;;;107.83;22.62;;;;;;;32.42;32.74;99653.38;1794169;77;22257;-74
2021/06/13 10:48:08;;;;;;;6.78;1.87;;;;;;;32.38;32.81;99649.30;1852713;77;22167;-69
2021/06/13 10:50:41;;;;;;;3.55;1.60;;;;;;;32.33;32.93;99647.63;1812117;77;22202;-69
2021/06/13 10:53:15;;;;;;;8.33;1.72;;;;;;;32.16;32.69;99653.65;1852695;77;22199;-72
2021/06/13 10:56:02;;;;;;;3.08;1.60;;;;;;;32.13;31.84;99656.23;1765113;79;21153;-72
2021/06/13 10:58:48;;;;;;;3.52;1.30;;;;;;;32.17;32.21;99650.77;1819751;77;22186;-72
2021/06/13 11:01:29;;;;;;;1.75;1.30;;;;;;;32.13;32.13;99643.11;1820463;77;22613;-73
2021/06/13 11:04:05;;;;;;;2.70;1.47;;;;;;;31.88;34.06;99647.32;1829915;77;22177;-70
2021/06/13 11:06:53;;;;;;;6.72;1.82;;;;;;;31.69;34.40;99658.06;1792577;79;21147;-69
2021/06/13 11:09:28;;;;;;;2.10;1.30;;;;;;;31.39;33.97;99659.13;1826748;77;22642;-70
2021/06/13 11:12:01;;;;;;;2.67;1.70;;;;;;;31.00;34.47;99645.73;1823564;77;22595;-70
2021/06/13 11:14:34;;;;;;;3.25;1.50;;;;;;;30.78;35.33;99649.97;1818519;77;22676;-71
2021/06/13 11:17:25;;;;;;;3.75;1.37;;;;;;;30.75;36.39;99651.14;1764741;80;21732;-73
2021/06/13 11:20:21;;;;;;;4.10;1.77;;;;;;;30.83;35.85;99644.88;1797628;77;22252;-69
2021/06/13 11:22:54;;;;;;;2.30;1.55;;;;;;;30.69;36.71;99649.95;1805858;77;28058;-70
2021/06/13 11:25:42;;;;;;;1.60;1.27;;;;;;;30.44;36.88;99654.98;1772157;80;21195;-68
2021/06/13 11:28:27;;;;;;;5.83;2.10;;;;;;;30.15;37.17;99646.73;1819848;77;22202;-70
2021/06/13 11:31:13;;;;;;;10.18;2.65;;;;;;;30.09;37.77;99651.80;1805626;77;22242;-65
2021/06/13 11:33:57;;;;;;;12.33;8.25;;;;;;;29.91;39.33;99644.25;1830957;77;22171;-64
2021/06/13 11:36:36;;;;;;;13.60;9.43;;;;;;;29.95;39.02;99645.63;1817948;77;22205;-72
2021/06/13 11:39:22;;;;;;;5.83;2.92;;;;;;;29.89;39.05;99647.63;1784434;80;21554;-72
2021/06/13 11:42:07;;;;;;;7.58;3.20;;;;;;;29.81;39.38;99642.52;1827813;77;22175;-66
2021/06/13 11:44:42;;;;;;;82.72;52.30;;;;;;;29.78;40.10;99637.41;1797502;77;22701;-66
2021/06/13 11:47:30;;;;;;;25.97;12.58;;;;;;;29.89;40.40;99632.72;1833530;77;22206;-65
2021/06/13 11:50:05;;;;;;;4.75;2.77;;;;;;;30.03;40.76;99634.82;1818513;77;22258;-71
2021/06/13 11:52:55;;;;;;;4.78;2.08;;;;;;;30.20;39.30;99632.17;1758621;80;21186;-72
2021/06/13 11:55:52;;;;;;;5.90;2.00;;;;;;;30.32;39.06;99620.00;1807351;77;22252;-65
2021/06/13 11:58:25;;;;;;;14.35;4.05;;;;;;;30.60;38.77;99610.75;1818575;77;22725;-66
2021/06/13 12:01:00;;;;;;;12.68;7.55;;;;;;;30.78;38.04;99604.63;1815655;77;22247;-67
2021/06/13 12:03:45;;;;;;;204.05;142.13;;;;;;;31.11;38.15;99602.41;1785827;80;21142;-65
2021/06/13 12:06:19;;;;;;;48.92;25.40;;;;;;;31.47;37.71;99592.51;1795158;77;22214;-66
2021/06/13 12:08:53;;;;;;;47.48;35.15;;;;;;;31.51;36.35;99601.18;1811412;77;22646;-65
2021/06/13 12:11:43;;;;;;;15.15;10.35;;;;;;;31.37;36.35;99599.51;1733116;81;21153;-64
2021/06/13 12:14:36;;;;;;;7.67;3.25;;;;;;;31.19;36.56;99587.98;1804975;77;22528;-67
2021/06/13 12:17:23;;;;;;;10.58;2.10;;;;;;;30.96;37.12;99633.50;1850519;77;22285;-70
2021/06/13 12:20:00;;;;;;;8.85;2.25;;;;;;;29.56;39.39;99632.56;1831695;77;22630;-70
2021/06/13 12:23:06;;;;;;;6.67;2.30;;;;;;;29.56;39.39;99632.56;1760625;80;21637;-70
2021/06/13 12:28:30;;;;;;;14.00;2.33;;;;;;;28.60;42.03;99597.94;1816979;77;22804;-68
2021/06/13 12:31:03;;;;;;;11.48;2.85;;;;;;;28.37;42.91;99608.85;1781210;77;28160;-64